sensor_id;sensor_type;location;lat;lon;timestamp;P1;durP1;ratioP1;P2;durP2;ratioP2
43529;SDS011;55654;50.966;6.878;2023-11-21T00:01:56;35.10;;;14.17;;
43529;SDS011;55654;50.966;6.878;2023-11-21T00:04:22;31.67;;;14.93;;
43529;SDS011;55654;50.966;6.878;2023-11-21T00:06:48;37.23;;;15.20;;
43529;SDS011;55654;50.966;6.878;2023-11-21T00:09:16;28.47;;;13.60;;
43529;SDS011;55654;50.966;6.878;2023-11-21T00:11:43;43.87;;;17.37;;
43529;SDS011;55654;50.966;6.878;2023-11-21T00:14:11;27.80;;;15.27;;
43529;SDS011;55654;50.966;6.878;2023-11-21T00:16:39;33.57;;;13.83;;
43529;SDS011;55654;50.966;6.878;2023-11-21T00:19:10;35.53;;;15.03;;
43529;SDS011;55654;50.966;6.878;2023-11-21T00:21:37;33.97;;;14.57;;
43529;SDS011;55654;50.966;6.878;2023-11-21T00:24:05;42.47;;;17.07;;
43529;SDS011;55654;50.966;6.878;2023-11-21T00:26:32;30.30;;;15.87;;
43529;SDS011;55654;50.966;6.878;2023-11-21T00:29:01;34.93;;;15.87;;
43529;SDS011;55654;50.966;6.878;2023-11-21T00:31:33;38.30;;;15.93;;
43529;SDS011;55654;50.966;6.878;2023-11-21T00:34:03;37.30;;;15.13;;
43529;SDS011;55654;50.966;6.878;2023-11-21T00:36:32;40.10;;;16.80;;
43529;SDS011;55654;50.966;6.878;2023-11-21T00:38:58;36.23;;;17.33;;
43529;SDS011;55654;50.966;6.878;2023-11-21T00:41:27;41.33;;;17.43;;
43529;SDS011;55654;50.966;6.878;2023-11-21T00:43:55;39.10;;;17.80;;
43529;SDS011;55654;50.966;6.878;2023-11-21T00:46:21;39.97;;;18.67;;
43529;SDS011;55654;50.966;6.878;2023-11-21T00:48:54;42.87;;;18.97;;
43529;SDS011;55654;50.966;6.878;2023-11-21T00:51:20;35.60;;;17.93;;
43529;SDS011;55654;50.966;6.878;2023-11-21T00:53:45;46.57;;;19.50;;
43529;SDS011;55654;50.966;6.878;2023-11-21T00:56:12;44.63;;;20.67;;
43529;SDS011;55654;50.966;6.878;2023-11-21T00:58:38;41.63;;;20.63;;
43529;SDS011;55654;50.966;6.878;2023-11-21T01:01:07;44.50;;;20.17;;
43529;SDS011;55654;50.966;6.878;2023-11-21T01:03:33;42.50;;;20.40;;
43529;SDS011;55654;50.966;6.878;2023-11-21T01:06:01;44.60;;;20.17;;
43529;SDS011;55654;50.966;6.878;2023-11-21T01:08:26;47.70;;;20.03;;
43529;SDS011;55654;50.966;6.878;2023-11-21T01:10:53;46.20;;;20.47;;
43529;SDS011;55654;50.966;6.878;2023-11-21T01:13:18;40.87;;;19.47;;
43529;SDS011;55654;50.966;6.878;2023-11-21T01:15:47;46.27;;;19.90;;
43529;SDS011;55654;50.966;6.878;2023-11-21T01:18:15;41.87;;;20.47;;
43529;SDS011;55654;50.966;6.878;2023-11-21T01:20:43;42.27;;;19.97;;
43529;SDS011;55654;50.966;6.878;2023-11-21T01:23:10;42.10;;;20.40;;
43529;SDS011;55654;50.966;6.878;2023-11-21T01:25:38;45.40;;;21.70;;
43529;SDS011;55654;50.966;6.878;2023-11-21T01:28:04;45.67;;;19.57;;
43529;SDS011;55654;50.966;6.878;2023-11-21T01:30:29;45.60;;;20.67;;
43529;SDS011;55654;50.966;6.878;2023-11-21T01:32:56;52.07;;;21.27;;
43529;SDS011;55654;50.966;6.878;2023-11-21T01:35:22;57.87;;;21.13;;
43529;SDS011;55654;50.966;6.878;2023-11-21T01:37:47;53.00;;;22.37;;
43529;SDS011;55654;50.966;6.878;2023-11-21T01:40:13;54.43;;;22.10;;
43529;SDS011;55654;50.966;6.878;2023-11-21T01:42:39;55.43;;;21.27;;
43529;SDS011;55654;50.966;6.878;2023-11-21T01:45:06;68.03;;;22.50;;
43529;SDS011;55654;50.966;6.878;2023-11-21T01:47:32;61.37;;;23.27;;
43529;SDS011;55654;50.966;6.878;2023-11-21T01:49:59;56.07;;;21.83;;
43529;SDS011;55654;50.966;6.878;2023-11-21T01:52:25;60.80;;;22.20;;
43529;SDS011;55654;50.966;6.878;2023-11-21T01:54:54;53.17;;;23.70;;
43529;SDS011;55654;50.966;6.878;2023-11-21T01:57:28;63.50;;;24.23;;
43529;SDS011;55654;50.966;6.878;2023-11-21T01:59:54;72.13;;;23.47;;
43529;SDS011;55654;50.966;6.878;2023-11-21T02:02:21;54.87;;;21.27;;
43529;SDS011;55654;50.966;6.878;2023-11-21T02:04:54;53.50;;;22.37;;
43529;SDS011;55654;50.966;6.878;2023-11-21T02:07:20;60.03;;;23.30;;
43529;SDS011;55654;50.966;6.878;2023-11-21T02:09:48;46.23;;;22.00;;
43529;SDS011;55654;50.966;6.878;2023-11-21T02:12:14;53.53;;;22.57;;
43529;SDS011;55654;50.966;6.878;2023-11-21T02:14:40;53.97;;;21.97;;
43529;SDS011;55654;50.966;6.878;2023-11-21T02:17:10;51.53;;;22.97;;
43529;SDS011;55654;50.966;6.878;2023-11-21T02:19:38;67.53;;;22.87;;
43529;SDS011;55654;50.966;6.878;2023-11-21T02:22:04;56.83;;;22.57;;
43529;SDS011;55654;50.966;6.878;2023-11-21T02:24:31;50.63;;;22.50;;
43529;SDS011;55654;50.966;6.878;2023-11-21T02:26:57;57.43;;;23.43;;
43529;SDS011;55654;50.966;6.878;2023-11-21T02:29:23;57.43;;;23.87;;
43529;SDS011;55654;50.966;6.878;2023-11-21T02:31:53;55.43;;;22.83;;
43529;SDS011;55654;50.966;6.878;2023-11-21T02:34:22;46.10;;;21.70;;
43529;SDS011;55654;50.966;6.878;2023-11-21T02:36:49;70.07;;;23.57;;
43529;SDS011;55654;50.966;6.878;2023-11-21T02:39:17;62.27;;;22.70;;
43529;SDS011;55654;50.966;6.878;2023-11-21T02:41:48;50.40;;;21.60;;
43529;SDS011;55654;50.966;6.878;2023-11-21T02:44:17;51.23;;;21.47;;
43529;SDS011;55654;50.966;6.878;2023-11-21T02:46:43;50.03;;;21.60;;
43529;SDS011;55654;50.966;6.878;2023-11-21T02:49:08;58.70;;;22.70;;
43529;SDS011;55654;50.966;6.878;2023-11-21T02:51:39;49.63;;;23.43;;
43529;SDS011;55654;50.966;6.878;2023-11-21T02:54:07;58.80;;;23.23;;
43529;SDS011;55654;50.966;6.878;2023-11-21T02:56:36;59.23;;;25.30;;
43529;SDS011;55654;50.966;6.878;2023-11-21T02:59:02;50.10;;;24.43;;
43529;SDS011;55654;50.966;6.878;2023-11-21T03:01:28;59.33;;;26.67;;
43529;SDS011;55654;50.966;6.878;2023-11-21T03:03:56;62.93;;;26.00;;
43529;SDS011;55654;50.966;6.878;2023-11-21T03:06:27;66.23;;;27.83;;
43529;SDS011;55654;50.966;6.878;2023-11-21T03:08:54;63.27;;;27.07;;
43529;SDS011;55654;50.966;6.878;2023-11-21T03:11:22;62.23;;;27.83;;
43529;SDS011;55654;50.966;6.878;2023-11-21T03:13:50;68.37;;;27.73;;
43529;SDS011;55654;50.966;6.878;2023-11-21T03:16:18;67.70;;;28.00;;
43529;SDS011;55654;50.966;6.878;2023-11-21T03:18:46;70.07;;;29.43;;
43529;SDS011;55654;50.966;6.878;2023-11-21T03:21:12;82.73;;;29.87;;
43529;SDS011;55654;50.966;6.878;2023-11-21T03:23:38;82.13;;;29.40;;
43529;SDS011;55654;50.966;6.878;2023-11-21T03:26:05;75.50;;;30.37;;
43529;SDS011;55654;50.966;6.878;2023-11-21T03:28:36;65.67;;;28.80;;
43529;SDS011;55654;50.966;6.878;2023-11-21T03:31:04;65.87;;;28.33;;
43529;SDS011;55654;50.966;6.878;2023-11-21T03:33:35;69.27;;;28.47;;
43529;SDS011;55654;50.966;6.878;2023-11-21T03:36:01;89.00;;;28.30;;
43529;SDS011;55654;50.966;6.878;2023-11-21T03:38:31;79.10;;;27.93;;
43529;SDS011;55654;50.966;6.878;2023-11-21T03:40:56;72.73;;;28.43;;
43529;SDS011;55654;50.966;6.878;2023-11-21T03:43:22;66.83;;;27.40;;
43529;SDS011;55654;50.966;6.878;2023-11-21T03:45:50;67.20;;;27.57;;
43529;SDS011;55654;50.966;6.878;2023-11-21T03:48:15;66.90;;;26.07;;
43529;SDS011;55654;50.966;6.878;2023-11-21T03:50:41;77.27;;;28.10;;
43529;SDS011;55654;50.966;6.878;2023-11-21T03:53:07;68.80;;;27.70;;
43529;SDS011;55654;50.966;6.878;2023-11-21T03:55:35;74.07;;;27.93;;
43529;SDS011;55654;50.966;6.878;2023-11-21T03:58:03;68.30;;;28.20;;
43529;SDS011;55654;50.966;6.878;2023-11-21T04:00:30;63.30;;;25.77;;
43529;SDS011;55654;50.966;6.878;2023-11-21T04:02:56;71.80;;;27.90;;
43529;SDS011;55654;50.966;6.878;2023-11-21T04:05:23;64.60;;;26.50;;
43529;SDS011;55654;50.966;6.878;2023-11-21T04:07:49;66.23;;;26.57;;
43529;SDS011;55654;50.966;6.878;2023-11-21T04:10:16;70.97;;;28.53;;
43529;SDS011;55654;50.966;6.878;2023-11-21T04:12:42;64.43;;;27.83;;
43529;SDS011;55654;50.966;6.878;2023-11-21T04:15:08;65.50;;;27.27;;
43529;SDS011;55654;50.966;6.878;2023-11-21T04:17:34;77.23;;;26.93;;
43529;SDS011;55654;50.966;6.878;2023-11-21T04:20:01;92.40;;;29.40;;
43529;SDS011;55654;50.966;6.878;2023-11-21T04:22:33;61.37;;;26.17;;
43529;SDS011;55654;50.966;6.878;2023-11-21T04:24:59;85.30;;;26.57;;
43529;SDS011;55654;50.966;6.878;2023-11-21T04:27:25;74.37;;;28.27;;
43529;SDS011;55654;50.966;6.878;2023-11-21T04:29:50;81.77;;;28.17;;
43529;SDS011;55654;50.966;6.878;2023-11-21T04:32:16;76.40;;;26.67;;
43529;SDS011;55654;50.966;6.878;2023-11-21T04:34:42;63.57;;;26.50;;
43529;SDS011;55654;50.966;6.878;2023-11-21T04:37:09;64.47;;;26.53;;
43529;SDS011;55654;50.966;6.878;2023-11-21T04:39:36;72.33;;;29.07;;
43529;SDS011;55654;50.966;6.878;2023-11-21T04:42:12;62.57;;;27.00;;
43529;SDS011;55654;50.966;6.878;2023-11-21T04:44:40;67.53;;;26.57;;
43529;SDS011;55654;50.966;6.878;2023-11-21T04:47:08;75.53;;;28.47;;
43529;SDS011;55654;50.966;6.878;2023-11-21T04:49:35;66.57;;;27.37;;
43529;SDS011;55654;50.966;6.878;2023-11-21T04:52:02;72.37;;;27.60;;
43529;SDS011;55654;50.966;6.878;2023-11-21T04:54:30;67.33;;;27.50;;
43529;SDS011;55654;50.966;6.878;2023-11-21T04:56:56;60.50;;;24.43;;
43529;SDS011;55654;50.966;6.878;2023-11-21T04:59:25;77.10;;;26.57;;
43529;SDS011;55654;50.966;6.878;2023-11-21T05:01:52;75.30;;;26.80;;
43529;SDS011;55654;50.966;6.878;2023-11-21T05:04:29;74.90;;;25.83;;
43529;SDS011;55654;50.966;6.878;2023-11-21T05:06:55;71.13;;;26.07;;
43529;SDS011;55654;50.966;6.878;2023-11-21T05:09:21;65.77;;;25.00;;
43529;SDS011;55654;50.966;6.878;2023-11-21T05:11:47;64.27;;;25.13;;
43529;SDS011;55654;50.966;6.878;2023-11-21T05:14:13;64.80;;;24.37;;
43529;SDS011;55654;50.966;6.878;2023-11-21T05:16:43;61.80;;;25.83;;
43529;SDS011;55654;50.966;6.878;2023-11-21T05:19:09;59.80;;;24.63;;
43529;SDS011;55654;50.966;6.878;2023-11-21T05:21:38;63.63;;;23.73;;
43529;SDS011;55654;50.966;6.878;2023-11-21T05:24:04;61.10;;;25.23;;
43529;SDS011;55654;50.966;6.878;2023-11-21T05:26:30;84.43;;;25.47;;
43529;SDS011;55654;50.966;6.878;2023-11-21T05:29:07;74.67;;;27.63;;
43529;SDS011;55654;50.966;6.878;2023-11-21T05:31:36;57.83;;;25.37;;
43529;SDS011;55654;50.966;6.878;2023-11-21T05:34:02;79.67;;;27.63;;
43529;SDS011;55654;50.966;6.878;2023-11-21T05:39:45;73.73;;;23.63;;
43529;SDS011;55654;50.966;6.878;2023-11-21T05:42:11;73.43;;;26.63;;
43529;SDS011;55654;50.966;6.878;2023-11-21T05:44:37;71.30;;;25.50;;
43529;SDS011;55654;50.966;6.878;2023-11-21T05:47:09;66.00;;;24.47;;
43529;SDS011;55654;50.966;6.878;2023-11-21T05:49:35;78.17;;;26.30;;
43529;SDS011;55654;50.966;6.878;2023-11-21T05:52:01;81.57;;;28.70;;
43529;SDS011;55654;50.966;6.878;2023-11-21T05:54:30;63.17;;;23.87;;
43529;SDS011;55654;50.966;6.878;2023-11-21T05:56:55;59.20;;;25.60;;
43529;SDS011;55654;50.966;6.878;2023-11-21T05:59:21;60.37;;;23.80;;
43529;SDS011;55654;50.966;6.878;2023-11-21T06:01:49;72.30;;;25.30;;
43529;SDS011;55654;50.966;6.878;2023-11-21T06:04:14;63.13;;;25.27;;
43529;SDS011;55654;50.966;6.878;2023-11-21T06:06:41;60.47;;;25.30;;
43529;SDS011;55654;50.966;6.878;2023-11-21T06:09:06;77.67;;;24.67;;
43529;SDS011;55654;50.966;6.878;2023-11-21T06:11:34;84.90;;;23.97;;
43529;SDS011;55654;50.966;6.878;2023-11-21T06:14:00;83.07;;;26.07;;
43529;SDS011;55654;50.966;6.878;2023-11-21T06:16:25;92.93;;;25.70;;
43529;SDS011;55654;50.966;6.878;2023-11-21T06:18:52;82.87;;;26.63;;
43529;SDS011;55654;50.966;6.878;2023-11-21T06:21:18;78.83;;;29.00;;
43529;SDS011;55654;50.966;6.878;2023-11-21T06:23:47;76.67;;;28.37;;
43529;SDS011;55654;50.966;6.878;2023-11-21T06:26:15;75.83;;;27.63;;
43529;SDS011;55654;50.966;6.878;2023-11-21T06:28:41;67.30;;;25.40;;
43529;SDS011;55654;50.966;6.878;2023-11-21T06:31:10;70.97;;;26.17;;
43529;SDS011;55654;50.966;6.878;2023-11-21T06:33:35;82.93;;;29.50;;
43529;SDS011;55654;50.966;6.878;2023-11-21T06:36:01;74.67;;;28.17;;
43529;SDS011;55654;50.966;6.878;2023-11-21T06:38:39;73.50;;;27.80;;
43529;SDS011;55654;50.966;6.878;2023-11-21T06:41:04;71.97;;;27.93;;
43529;SDS011;55654;50.966;6.878;2023-11-21T06:43:31;71.70;;;29.33;;
43529;SDS011;55654;50.966;6.878;2023-11-21T06:45:57;86.00;;;30.70;;
43529;SDS011;55654;50.966;6.878;2023-11-21T06:48:22;82.73;;;29.80;;
43529;SDS011;55654;50.966;6.878;2023-11-21T06:50:48;78.30;;;28.77;;
43529;SDS011;55654;50.966;6.878;2023-11-21T06:53:16;85.83;;;30.77;;
43529;SDS011;55654;50.966;6.878;2023-11-21T06:55:45;93.70;;;32.53;;
43529;SDS011;55654;50.966;6.878;2023-11-21T06:58:13;94.27;;;32.07;;
43529;SDS011;55654;50.966;6.878;2023-11-21T07:00:40;114.73;;;32.20;;
43529;SDS011;55654;50.966;6.878;2023-11-21T07:03:11;103.97;;;34.23;;
43529;SDS011;55654;50.966;6.878;2023-11-21T07:05:39;89.93;;;31.93;;
43529;SDS011;55654;50.966;6.878;2023-11-21T07:08:05;96.30;;;32.50;;
43529;SDS011;55654;50.966;6.878;2023-11-21T07:10:32;88.87;;;31.77;;
43529;SDS011;55654;50.966;6.878;2023-11-21T07:13:07;113.00;;;31.03;;
43529;SDS011;55654;50.966;6.878;2023-11-21T07:15:40;118.53;;;34.47;;
43529;SDS011;55654;50.966;6.878;2023-11-21T07:18:06;110.47;;;33.37;;
43529;SDS011;55654;50.966;6.878;2023-11-21T07:20:32;113.70;;;36.23;;
43529;SDS011;55654;50.966;6.878;2023-11-21T07:22:58;126.47;;;37.10;;
43529;SDS011;55654;50.966;6.878;2023-11-21T07:25:30;126.87;;;35.97;;
43529;SDS011;55654;50.966;6.878;2023-11-21T07:28:08;114.17;;;32.37;;
43529;SDS011;55654;50.966;6.878;2023-11-21T07:30:34;99.40;;;32.57;;
43529;SDS011;55654;50.966;6.878;2023-11-21T07:33:02;93.93;;;32.10;;
43529;SDS011;55654;50.966;6.878;2023-11-21T07:35:28;79.63;;;26.50;;
43529;SDS011;55654;50.966;6.878;2023-11-21T07:37:54;78.90;;;28.17;;
43529;SDS011;55654;50.966;6.878;2023-11-21T07:40:23;90.03;;;28.70;;
43529;SDS011;55654;50.966;6.878;2023-11-21T07:42:48;96.03;;;28.43;;
43529;SDS011;55654;50.966;6.878;2023-11-21T07:45:16;96.97;;;28.83;;
43529;SDS011;55654;50.966;6.878;2023-11-21T07:47:45;93.57;;;28.03;;
43529;SDS011;55654;50.966;6.878;2023-11-21T07:50:16;86.17;;;27.97;;
43529;SDS011;55654;50.966;6.878;2023-11-21T07:52:45;93.33;;;28.97;;
43529;SDS011;55654;50.966;6.878;2023-11-21T07:55:11;77.37;;;27.30;;
43529;SDS011;55654;50.966;6.878;2023-11-21T07:57:37;92.40;;;28.07;;
43529;SDS011;55654;50.966;6.878;2023-11-21T08:00:04;85.73;;;26.33;;
43529;SDS011;55654;50.966;6.878;2023-11-21T08:02:34;100.43;;;28.03;;
43529;SDS011;55654;50.966;6.878;2023-11-21T08:05:00;94.07;;;28.13;;
43529;SDS011;55654;50.966;6.878;2023-11-21T08:07:26;92.13;;;27.77;;
43529;SDS011;55654;50.966;6.878;2023-11-21T08:09:51;73.03;;;23.60;;
43529;SDS011;55654;50.966;6.878;2023-11-21T08:12:21;87.57;;;27.20;;
43529;SDS011;55654;50.966;6.878;2023-11-21T08:14:47;84.17;;;25.93;;
43529;SDS011;55654;50.966;6.878;2023-11-21T08:17:13;75.83;;;26.27;;
43529;SDS011;55654;50.966;6.878;2023-11-21T08:19:39;71.93;;;27.63;;
43529;SDS011;55654;50.966;6.878;2023-11-21T08:22:04;76.93;;;31.37;;
43529;SDS011;55654;50.966;6.878;2023-11-21T08:24:33;76.13;;;30.93;;
43529;SDS011;55654;50.966;6.878;2023-11-21T08:27:01;68.80;;;30.07;;
43529;SDS011;55654;50.966;6.878;2023-11-21T08:29:30;78.80;;;32.77;;
43529;SDS011;55654;50.966;6.878;2023-11-21T08:31:56;71.50;;;29.67;;
43529;SDS011;55654;50.966;6.878;2023-11-21T08:34:35;71.80;;;29.47;;
43529;SDS011;55654;50.966;6.878;2023-11-21T08:37:01;79.10;;;31.13;;
43529;SDS011;55654;50.966;6.878;2023-11-21T08:39:30;78.80;;;31.33;;
43529;SDS011;55654;50.966;6.878;2023-11-21T08:41:57;82.83;;;31.23;;
43529;SDS011;55654;50.966;6.878;2023-11-21T08:44:23;90.83;;;32.37;;
43529;SDS011;55654;50.966;6.878;2023-11-21T08:46:50;79.77;;;31.43;;
43529;SDS011;55654;50.966;6.878;2023-11-21T08:49:23;81.47;;;31.67;;
43529;SDS011;55654;50.966;6.878;2023-11-21T08:51:51;75.93;;;32.63;;
43529;SDS011;55654;50.966;6.878;2023-11-21T08:54:20;88.27;;;32.77;;
43529;SDS011;55654;50.966;6.878;2023-11-21T08:56:46;78.67;;;32.50;;
43529;SDS011;55654;50.966;6.878;2023-11-21T08:59:12;73.23;;;30.53;;
43529;SDS011;55654;50.966;6.878;2023-11-21T09:01:41;70.57;;;31.90;;
43529;SDS011;55654;50.966;6.878;2023-11-21T09:04:07;71.13;;;31.53;;
43529;SDS011;55654;50.966;6.878;2023-11-21T09:06:33;76.17;;;32.70;;
43529;SDS011;55654;50.966;6.878;2023-11-21T09:09:00;83.90;;;32.83;;
43529;SDS011;55654;50.966;6.878;2023-11-21T09:11:35;82.33;;;32.27;;
43529;SDS011;55654;50.966;6.878;2023-11-21T09:14:03;78.13;;;31.43;;
43529;SDS011;55654;50.966;6.878;2023-11-21T09:16:34;80.97;;;33.33;;
43529;SDS011;55654;50.966;6.878;2023-11-21T09:19:00;84.97;;;32.60;;
43529;SDS011;55654;50.966;6.878;2023-11-21T09:21:25;72.83;;;31.97;;
43529;SDS011;55654;50.966;6.878;2023-11-21T09:23:52;72.20;;;30.13;;
43529;SDS011;55654;50.966;6.878;2023-11-21T09:26:19;74.73;;;32.40;;
43529;SDS011;55654;50.966;6.878;2023-11-21T09:28:44;78.40;;;32.57;;
43529;SDS011;55654;50.966;6.878;2023-11-21T09:31:12;78.57;;;32.07;;
43529;SDS011;55654;50.966;6.878;2023-11-21T09:33:47;88.73;;;33.03;;
43529;SDS011;55654;50.966;6.878;2023-11-21T09:36:18;74.80;;;31.53;;
43529;SDS011;55654;50.966;6.878;2023-11-21T09:38:47;68.77;;;28.83;;
43529;SDS011;55654;50.966;6.878;2023-11-21T09:41:19;70.67;;;30.30;;
43529;SDS011;55654;50.966;6.878;2023-11-21T09:43:53;66.97;;;28.80;;
43529;SDS011;55654;50.966;6.878;2023-11-21T09:46:24;71.28;;;28.33;;
43529;SDS011;55654;50.966;6.878;2023-11-21T09:48:53;72.40;;;27.93;;
43529;SDS011;55654;50.966;6.878;2023-11-21T09:51:21;77.23;;;28.30;;
43529;SDS011;55654;50.966;6.878;2023-11-21T09:54:06;76.53;;;29.30;;
43529;SDS011;55654;50.966;6.878;2023-11-21T09:56:37;84.73;;;29.73;;
43529;SDS011;55654;50.966;6.878;2023-11-21T09:59:05;81.07;;;30.33;;
43529;SDS011;55654;50.966;6.878;2023-11-21T10:01:35;77.43;;;28.83;;
43529;SDS011;55654;50.966;6.878;2023-11-21T10:04:05;65.17;;;29.07;;
43529;SDS011;55654;50.966;6.878;2023-11-21T10:06:36;79.03;;;30.27;;
43529;SDS011;55654;50.966;6.878;2023-11-21T10:09:08;75.37;;;30.37;;
43529;SDS011;55654;50.966;6.878;2023-11-21T10:11:37;92.27;;;31.90;;
43529;SDS011;55654;50.966;6.878;2023-11-21T10:14:11;100.47;;;33.97;;
43529;SDS011;55654;50.966;6.878;2023-11-21T10:16:39;87.93;;;29.83;;
43529;SDS011;55654;50.966;6.878;2023-11-21T10:19:06;66.53;;;28.73;;
43529;SDS011;55654;50.966;6.878;2023-11-21T10:21:35;87.17;;;28.97;;
43529;SDS011;55654;50.966;6.878;2023-11-21T10:24:01;68.20;;;27.57;;
43529;SDS011;55654;50.966;6.878;2023-11-21T10:26:28;92.10;;;29.60;;
43529;SDS011;55654;50.966;6.878;2023-11-21T10:28:57;70.17;;;26.13;;
43529;SDS011;55654;50.966;6.878;2023-11-21T10:31:23;68.53;;;24.57;;
43529;SDS011;55654;50.966;6.878;2023-11-21T10:33:51;65.80;;;25.13;;
43529;SDS011;55654;50.966;6.878;2023-11-21T10:36:27;66.33;;;23.70;;
43529;SDS011;55654;50.966;6.878;2023-11-21T10:38:53;57.53;;;24.63;;
43529;SDS011;55654;50.966;6.878;2023-11-21T10:41:20;58.93;;;24.30;;
43529;SDS011;55654;50.966;6.878;2023-11-21T10:43:52;57.67;;;23.17;;
43529;SDS011;55654;50.966;6.878;2023-11-21T10:46:20;75.13;;;26.63;;
43529;SDS011;55654;50.966;6.878;2023-11-21T10:48:51;61.27;;;24.20;;
43529;SDS011;55654;50.966;6.878;2023-11-21T10:51:21;64.40;;;26.03;;
43529;SDS011;55654;50.966;6.878;2023-11-21T10:53:49;79.67;;;26.10;;
43529;SDS011;55654;50.966;6.878;2023-11-21T10:56:25;68.53;;;24.93;;
43529;SDS011;55654;50.966;6.878;2023-11-21T10:58:52;72.40;;;24.43;;
43529;SDS011;55654;50.966;6.878;2023-11-21T11:01:20;64.57;;;25.03;;
43529;SDS011;55654;50.966;6.878;2023-11-21T11:03:49;64.57;;;24.23;;
43529;SDS011;55654;50.966;6.878;2023-11-21T11:06:20;66.67;;;25.47;;
43529;SDS011;55654;50.966;6.878;2023-11-21T11:08:46;72.63;;;24.80;;
43529;SDS011;55654;50.966;6.878;2023-11-21T11:11:14;59.27;;;23.73;;
43529;SDS011;55654;50.966;6.878;2023-11-21T11:13:43;64.87;;;25.67;;
43529;SDS011;55654;50.966;6.878;2023-11-21T11:16:11;68.93;;;25.80;;
43529;SDS011;55654;50.966;6.878;2023-11-21T11:18:42;59.00;;;23.70;;
43529;SDS011;55654;50.966;6.878;2023-11-21T11:21:22;60.90;;;25.47;;
43529;SDS011;55654;50.966;6.878;2023-11-21T11:27:01;64.93;;;25.10;;
43529;SDS011;55654;50.966;6.878;2023-11-21T11:29:49;55.73;;;23.47;;
43529;SDS011;55654;50.966;6.878;2023-11-21T11:32:50;61.13;;;24.00;;
43529;SDS011;55654;50.966;6.878;2023-11-21T11:38:17;44.45;;;19.45;;
43529;SDS011;55654;50.966;6.878;2023-11-21T11:40:46;41.57;;;17.37;;
43529;SDS011;55654;50.966;6.878;2023-11-21T11:43:12;45.63;;;18.13;;
43529;SDS011;55654;50.966;6.878;2023-11-21T11:45:38;51.07;;;18.37;;
43529;SDS011;55654;50.966;6.878;2023-11-21T11:48:07;43.63;;;17.27;;
43529;SDS011;55654;50.966;6.878;2023-11-21T11:50:41;37.57;;;15.23;;
43529;SDS011;55654;50.966;6.878;2023-11-21T11:53:28;40.33;;;16.17;;
43529;SDS011;55654;50.966;6.878;2023-11-21T11:58:50;45.80;;;17.60;;
43529;SDS011;55654;50.966;6.878;2023-11-21T12:01:21;47.30;;;18.87;;
43529;SDS011;55654;50.966;6.878;2023-11-21T12:06:51;44.97;;;17.10;;
43529;SDS011;55654;50.966;6.878;2023-11-21T12:09:18;49.33;;;17.67;;
43529;SDS011;55654;50.966;6.878;2023-11-21T12:11:46;50.97;;;18.87;;
43529;SDS011;55654;50.966;6.878;2023-11-21T12:14:15;47.07;;;17.13;;
43529;SDS011;55654;50.966;6.878;2023-11-21T12:16:41;45.67;;;17.10;;
43529;SDS011;55654;50.966;6.878;2023-11-21T12:21:40;41.97;;;17.03;;
43529;SDS011;55654;50.966;6.878;2023-11-21T12:24:06;44.60;;;18.57;;
43529;SDS011;55654;50.966;6.878;2023-11-21T12:26:43;44.87;;;17.50;;
43529;SDS011;55654;50.966;6.878;2023-11-21T12:29:09;42.90;;;17.37;;
43529;SDS011;55654;50.966;6.878;2023-11-21T12:31:35;40.33;;;18.20;;
43529;SDS011;55654;50.966;6.878;2023-11-21T12:34:01;37.43;;;16.73;;
43529;SDS011;55654;50.966;6.878;2023-11-21T12:36:27;47.70;;;19.07;;
43529;SDS011;55654;50.966;6.878;2023-11-21T12:38:55;42.13;;;16.67;;
43529;SDS011;55654;50.966;6.878;2023-11-21T12:41:21;46.13;;;18.37;;
43529;SDS011;55654;50.966;6.878;2023-11-21T12:43:56;40.47;;;18.00;;
43529;SDS011;55654;50.966;6.878;2023-11-21T12:46:22;46.87;;;17.37;;
43529;SDS011;55654;50.966;6.878;2023-11-21T12:48:51;38.33;;;17.17;;
43529;SDS011;55654;50.966;6.878;2023-11-21T12:51:20;40.50;;;16.73;;
43529;SDS011;55654;50.966;6.878;2023-11-21T12:53:57;35.73;;;16.10;;
43529;SDS011;55654;50.966;6.878;2023-11-21T12:56:23;44.10;;;17.83;;
43529;SDS011;55654;50.966;6.878;2023-11-21T12:58:50;43.33;;;18.77;;
43529;SDS011;55654;50.966;6.878;2023-11-21T13:01:19;39.17;;;17.80;;
43529;SDS011;55654;50.966;6.878;2023-11-21T13:03:47;55.03;;;21.40;;
43529;SDS011;55654;50.966;6.878;2023-11-21T13:06:15;58.73;;;25.40;;
43529;SDS011;55654;50.966;6.878;2023-11-21T13:08:44;51.10;;;22.27;;
43529;SDS011;55654;50.966;6.878;2023-11-21T13:11:11;58.67;;;24.30;;
43529;SDS011;55654;50.966;6.878;2023-11-21T13:13:40;50.93;;;20.87;;
43529;SDS011;55654;50.966;6.878;2023-11-21T13:16:11;56.55;;;23.95;;
43529;SDS011;55654;50.966;6.878;2023-11-21T13:18:40;51.37;;;22.10;;
43529;SDS011;55654;50.966;6.878;2023-11-21T13:21:08;54.00;;;22.40;;
43529;SDS011;55654;50.966;6.878;2023-11-21T13:23:39;55.50;;;21.80;;
43529;SDS011;55654;50.966;6.878;2023-11-21T13:26:06;51.43;;;20.93;;
43529;SDS011;55654;50.966;6.878;2023-11-21T13:28:33;58.23;;;22.67;;
43529;SDS011;55654;50.966;6.878;2023-11-21T13:31:01;53.70;;;21.20;;
43529;SDS011;55654;50.966;6.878;2023-11-21T13:33:34;52.80;;;20.97;;
43529;SDS011;55654;50.966;6.878;2023-11-21T13:36:07;48.87;;;22.63;;
43529;SDS011;55654;50.966;6.878;2023-11-21T13:38:39;49.97;;;21.60;;
43529;SDS011;55654;50.966;6.878;2023-11-21T13:41:07;53.57;;;24.20;;
43529;SDS011;55654;50.966;6.878;2023-11-21T13:43:35;54.63;;;22.50;;
43529;SDS011;55654;50.966;6.878;2023-11-21T13:46:02;50.13;;;22.17;;
43529;SDS011;55654;50.966;6.878;2023-11-21T13:48:38;49.20;;;21.40;;
43529;SDS011;55654;50.966;6.878;2023-11-21T13:51:07;52.63;;;22.97;;
43529;SDS011;55654;50.966;6.878;2023-11-21T13:53:44;50.67;;;21.87;;
43529;SDS011;55654;50.966;6.878;2023-11-21T13:56:12;54.97;;;21.50;;
43529;SDS011;55654;50.966;6.878;2023-11-21T13:58:47;46.23;;;21.07;;
43529;SDS011;55654;50.966;6.878;2023-11-21T14:01:16;47.93;;;19.00;;
43529;SDS011;55654;50.966;6.878;2023-11-21T14:03:55;37.90;;;16.97;;
43529;SDS011;55654;50.966;6.878;2023-11-21T14:06:33;44.80;;;19.17;;
43529;SDS011;55654;50.966;6.878;2023-11-21T14:09:07;48.83;;;18.80;;
43529;SDS011;55654;50.966;6.878;2023-11-21T14:11:33;46.07;;;16.70;;
43529;SDS011;55654;50.966;6.878;2023-11-21T14:14:03;33.67;;;15.53;;
43529;SDS011;55654;50.966;6.878;2023-11-21T14:16:30;36.73;;;16.13;;
43529;SDS011;55654;50.966;6.878;2023-11-21T14:18:58;39.40;;;16.33;;
43529;SDS011;55654;50.966;6.878;2023-11-21T14:21:34;36.73;;;14.97;;
43529;SDS011;55654;50.966;6.878;2023-11-21T14:24:00;49.17;;;16.93;;
43529;SDS011;55654;50.966;6.878;2023-11-21T14:26:34;43.37;;;16.07;;
43529;SDS011;55654;50.966;6.878;2023-11-21T14:29:03;40.53;;;15.43;;
43529;SDS011;55654;50.966;6.878;2023-11-21T14:31:29;41.87;;;16.70;;
43529;SDS011;55654;50.966;6.878;2023-11-21T14:33:59;40.00;;;15.70;;
43529;SDS011;55654;50.966;6.878;2023-11-21T14:36:28;43.30;;;17.00;;
43529;SDS011;55654;50.966;6.878;2023-11-21T14:38:54;39.80;;;17.63;;
43529;SDS011;55654;50.966;6.878;2023-11-21T14:41:20;38.60;;;16.97;;
43529;SDS011;55654;50.966;6.878;2023-11-21T14:43:45;38.87;;;17.53;;
43529;SDS011;55654;50.966;6.878;2023-11-21T14:46:17;36.63;;;17.93;;